Home > Products > Valid Products > TAF

000
FTUS41 KCAR 250500 RRA
TAFBGR
TAF
KBGR 250559Z 2506/2606 34008KT P6SM BKN025 OVC080
     FM250700 34008KT P6SM SCT030 SCT080
     FM251400 34010G18KT P6SM SCT250
     FM260000 36004KT P6SM SKC=



000
FTUS41 KCAR 250500 RRA
TAFCAR
TAF
KCAR 250559Z 2506/2606 33008G15KT P6SM OVC025
     FM251500 33012G20KT P6SM BKN035 OVC050
     FM252300 34005KT P6SM SCT050=



000
FTUS41 KCAR 250500 RRA
TAFHUL
TAF
KHUL 250559Z 2506/2606 34006KT P6SM OVC006
     FM251200 34008KT P6SM BKN012 OVC040
     FM251500 34012G20KT P6SM BKN050
     FM252300 36004KT P6SM SCT050=



000
FTUS41 KCAR 250500 RRA
TAFBHB
TAF
KBHB 250559Z 2506/2606 34008KT P6SM BKN015 OVC080
     FM250700 34008KT P6SM SCT030 SCT080
     FM251400 34010G18KT P6SM SCT250
     FM260000 VRB03KT P6SM SKC
      AMD LTD TO CLD VIS AND WIND=



000
FTUS41 KCAR 250500 RRA
TAFPQI
TAF
KPQI 250559Z 2506/2606 33008G15KT P6SM OVC025
     FM251500 33012G20KT P6SM BKN035 OVC050
     FM252300 34005KT P6SM SCT050
      AMD LTD TO CLD VIS AND WIND=



000
FTUS41 KCAR 250200 AAA
TAFBHB
TAF AMD
KBHB 250209Z 2502/2524 34010G20KT P6SM OVC015
     FM250400 34010KT P6SM SCT015 BKN035
     FM251200 33009KT P6SM SCT050
     FM252100 30005KT P6SM FEW250
      AMD LTD TO CLD VIS AND WIND=



000
FTUS41 KCAR 250200 AAA
TAFHUL
TAF AMD
KHUL 250209Z 2502/2524 36010KT P6SM OVC006
     FM250400 35007KT 5SM BR OVC005
     FM251200 33005KT P6SM BKN012
     FM251400 34009KT P6SM SCT050=



000
FTUS41 KCAR 250200 AAA
TAFCAR
TAF AMD
KCAR 250208Z 2502/2524 34010KT 5SM -SN BR OVC015
     FM250300 34006KT 5SM BR OVC008
     FM251300 33010KT P6SM BKN020
     FM251500 34008KT P6SM SCT035=



000
FTUS41 KCAR 242300 RRA
TAFHUL
TAF
KHUL 242350Z 2500/2524 35014KT 1SM -SN BR OVC006
     FM250300 35007KT 5SM BR OVC005
     FM251200 33005KT P6SM BKN012
     FM251400 34009KT P6SM SCT050=



000
FTUS41 KCAR 242300 RRA
TAFPQI
TAF
KPQI 242350Z 2500/2524 36009KT 5SM -SN BR OVC016
      TEMPO 2500/2502 BKN008
     FM250400 34007KT 5SM BR OVC008
     FM251200 33007KT P6SM BKN015
     FM251400 34008KT P6SM SCT040
      AMD LTD TO CLD VIS AND WIND=



000
FTUS41 KCAR 242300 RRA
TAFBHB
TAF
KBHB 242350Z 2500/2524 34016G23KT P6SM OVC025
     FM250400 34010KT P6SM SCT020 BKN035
     FM251200 33009KT P6SM SCT050
     FM252100 30005KT P6SM FEW250
      AMD LTD TO CLD VIS AND WIND=



000
FTUS41 KCAR 242300 RRA
TAFBGR
TAF
KBGR 242350Z 2500/2524 35018G25KT P6SM VCSH SCT020 OVC035
      TEMPO 2501/2504 BKN025
     FM250400 34010KT P6SM BKN025
     FM250700 34008KT P6SM SCT040
     FM252200 02006KT P6SM FEW050 SCT250=



000
FTUS41 KCAR 242300 RRA
TAFCAR
TAF
KCAR 242350Z 2500/2524 36006KT 2SM -SN BR FEW008 OVC014
      TEMPO 2500/2502 BKN008
     FM250300 34006KT 5SM BR OVC006
     FM251300 33010KT P6SM BKN020
     FM251500 34008KT P6SM SCT035=



000
FTUS41 KCAR 241900 AAA
TAFHUL
TAF AMD
KHUL 241929Z 2419/2518 36013G22KT 6SM -SNRA OVC009
     FM242100 36013G22KT 2SM -SN OVC009
     FM250400 36010KT P6SM OVC008
     FM251200 34008KT P6SM BKN015
     FM251500 33006KT P6SM SCT035=



000
FTUS41 KCAR 241900 AAA
TAFBGR
TAF AMD
KBGR 241905Z 2419/2518 34017G30KT P6SM OVC035
     FM250000 35014G22KT P6SM OVC035
     FM250700 34010KT P6SM SCT050=



000
FTUS41 KCAR 241800 AAA
TAFBHB
TAF AMD
KBHB 241838Z 2419/2518 34017G30KT 6SM -RA OVC020
     FM250000 35014G22KT P6SM OVC020
     FM250600 34011KT P6SM BKN015
     FM250800 34011KT P6SM SCT025
      AMD LTD TO CLD VIS AND WIND=



000
FTUS41 KCAR 241800 RRB
TAFHUL
TAF
KHUL 241806Z 2418/2518 36013G22KT 6SM -SNRA OVC010
     FM242100 36013G22KT 2SM -SN OVC009
     FM250400 36010KT P6SM OVC008
     FM251200 34008KT P6SM BKN015
     FM251500 33006KT P6SM SCT035=



000
FTUS41 KCAR 241700 RRA
TAFBHB
TAF
KBHB 241759Z 2418/2518 34017G30KT 6SM -RA OVC018
     FM250000 35014G22KT P6SM OVC020
     FM250600 34011KT P6SM BKN015
     FM250800 34011KT P6SM SCT025
      AMD LTD TO CLD VIS AND WIND=



000
FTUS41 KCAR 241700 RRA
TAFHUL
TAF
KHUL 241759Z 2418/2518 36013G22KT 6SM -SNRA OVC008
     FM242100 36013G22KT 2SM -SN OVC009
     FM250400 36010KT P6SM OVC008
     FM251200 34008KT P6SM BKN015
     FM251500 33006KT P6SM SCT035=



000
FTUS41 KCAR 241700 RRA
TAFPQI
TAF
KPQI 241759Z 2418/2518 36012G21KT 6SM -SN SCT008 OVC015
     FM242100 36013G22KT 2SM -SN OVC009
     FM250400 35008KT P6SM OVC009
     FM251300 33006KT P6SM BKN015
     FM251500 33006KT P6SM SCT035
      AMD LTD TO CLD VIS AND WIND=



000
FTUS41 KCAR 241700 RRA
TAFCAR
TAF
KCAR 241759Z 2418/2518 36012KT 2SM -SN BKN008 OVC015
     FM250400 35008KT P6SM OVC008
     FM251300 33006KT P6SM BKN015
     FM251500 33006KT P6SM SCT035=



000
FTUS41 KCAR 241700 RRA
TAFBGR
TAF
KBGR 241759Z 2418/2518 34017G30KT P6SM OVC025
     FM250000 35014G22KT P6SM OVC030
     FM250700 34010KT P6SM SCT050=



000
FTUS41 KCAR 241700 CCB
TAFHUL
TAF COR
KHUL 241703Z 2417/2512 36014G24KT 3SM -SN BR BKN009 OVC015
     FM241900 35015G25KT 3SM -RASN BR SCT007 OVC015=



000
FTUS41 KCAR 241700 AAJ
TAFHUL
TAF AMD
KHUL 241701Z 2417/2512 36014G24KT 3SM -SN BR BKN006 OVC015
     FM241900 35015G25KT 3SM -RASN BR SCT007 OVC015=



000
FTUS41 KCAR 241600 AAB
TAFBHB
TAF AMD
KBHB 241612Z 2416/2512 34014G22KT P6SM -RA BKN015 OVC035
     FM241900 34018G28KT P6SM BKN035 OVC080
     FM250000 35012G20KT P6SM SCT100
      AMD LTD TO CLD VIS AND WIND=



000
FTUS41 KCAR 241600 AAD
TAFBGR
TAF AMD
KBGR 241612Z 2416/2512 31014G26KT 6SM -RA OVC015
     FM241900 34024G32KT P6SM BKN035 OVC080
     FM250000 35014G22KT P6SM SCT100=



000
FTUS41 KCAR 241600 AAC
TAFCAR
TAF AMD
KCAR 241611Z 2416/2512 34014KT 1 1/2SM -SN BR SCT008 OVC015
     FM241730 35015G25KT 3SM -RASN BR SCT007 OVC015
     FM241900 36014G22KT 6SM -SHRA OVC020=



000
FTUS41 KCAR 241500 AAB
TAFCAR
TAF AMD
KCAR 241530Z 2416/2512 34014KT 2SM -SN BR BKN008 OVC015
     FM241700 35015G25KT 3SM -RASN BR SCT007 OVC015
     FM241800 36014G22KT 6SM -SHRA OVC020=



000
FTUS41 KCAR 241500 AAI
TAFHUL
TAF AMD
KHUL 241501Z 2415/2512 36014G24KT 3SM -SN BR BKN006 OVC015
     FM241700 35015G25KT 3SM -RASN BR SCT007 OVC015
     FM241800 36014G22KT 6SM -SHRA OVC020=



000
FTUS41 KCAR 241500 AAA
TAFCAR
TAF AMD
KCAR 241500Z 2415/2512 34014KT 1 1/2SM -SN BR BKN008 OVC015
     FM241700 35015G25KT 3SM -RASN BR SCT007 OVC015
     FM241800 36014G22KT 6SM -SHRA OVC020=



000
FTUS41 KCAR 241500 AAH
TAFHUL
TAF AMD
KHUL 241500Z 2415/2512 36014KT 3SM -SN BR BKN006 OVC015
     FM241700 35015G25KT 3SM -RASN BR SCT007 OVC015
     FM241800 36014G22KT 6SM -SHRA OVC020=



000
FTUS41 KCAR 241400 AAG
TAFPQI
TAF AMD
KPQI 241459Z 2415/2512 35014KT 3SM -SN BR BKN008 OVC012
     FM241530 35015G25KT 3SM -RASN BR SCT007 OVC015
     FM241600 36015G25KT 5SM -RA BR OVC015
     FM241800 36014G22KT 6SM -SHRA OVC020
      AMD LTD TO CLD VIS AND WIND=



000
FTUS41 KCAR 241400 AAG
TAFHUL
TAF AMD
KHUL 241446Z 2415/2512 36014KT 3SM -SN BR BKN006 OVC015
     FM241500 35015G25KT 3SM -RASN BR SCT007 OVC015
     FM241600 36015G25KT 5SM -RA BR OVC015
     FM241800 36014G22KT 6SM -SHRA OVC020=



000
FTUS41 KCAR 241400 AAF
TAFPQI
TAF AMD
KPQI 241431Z 2415/2512 35014KT 2SM -SN BR SCT009 OVC012
     FM241530 35015G25KT 3SM -RASN BR SCT007 OVC015
     FM241600 36015G25KT 5SM -RA BR OVC015
     FM241800 36014G22KT 6SM -SHRA OVC020
      AMD LTD TO CLD VIS AND WIND=



000
FTUS41 KCAR 241400 AAF
TAFHUL
TAF AMD
KHUL 241420Z 2414/2512 34014KT 2SM -SN BR BKN006 OVC015
     FM241500 35015G25KT 3SM -RASN BR SCT007 OVC015
     FM241600 36015G25KT 5SM -RA BR OVC015
     FM241800 36014G22KT 6SM -SHRA OVC020=



000
FTUS41 KCAR 241400 AAF
TAFCAR
TAF AMD
KCAR 241412Z 2414/2512 34014KT 1 1/2SM -SN BR BKN008 OVC015
     FM241500 35015G25KT 3SM -RASN BR SCT007 OVC015
     FM241530 36015G25KT 5SM -RA BR OVC015
     FM241800 36014G22KT 6SM -SHRA OVC020=



000
FTUS41 KCAR 241400 AAE
TAFCAR
TAF AMD
KCAR 241402Z 2414/2512 34014KT 2SM -SN BR SCT008 OVC015
     FM241500 35015G25KT 3SM -RASN BR SCT007 OVC015
     FM241530 36015G25KT 5SM -RA BR OVC015
     FM241800 36014G22KT 6SM -SHRA OVC020=



000
FTUS41 KCAR 241400 AAE
TAFHUL
TAF AMD
KHUL 241402Z 2414/2512 34014KT 1SM -SN BR BKN005 OVC015
     FM241500 35015G25KT 3SM -RASN BR SCT007 OVC015
     FM241600 36015G25KT 5SM -RA BR OVC015
     FM241800 36014G22KT 6SM -SHRA OVC020=



000
FTUS41 KCAR 241300 AAC
TAFBGR
TAF AMD
KBGR 241347Z 2414/2512 32014G26KT 6SM -RA OVC015
     FM241600 34024G32KT P6SM BKN035 OVC080
     FM250000 35014G22KT P6SM SCT100=



000
FTUS41 KCAR 241300 AAD
TAFHUL
TAF AMD
KHUL 241340Z 2414/2512 34014KT 1SM -SN BR BKN005 OVC015
     FM241400 35015G25KT 3SM -RASN BR SCT007 OVC015
     FM241500 36015G25KT 5SM -RA BR OVC015
     FM241800 36014G22KT 6SM -SHRA OVC020=



000
FTUS41 KCAR 241300 AAE
TAFPQI
TAF AMD
KPQI 241340Z 2414/2512 34014G22KT 2SM -SN BR SCT009 OVC015
     FM241430 35015G25KT 3SM -RASN BR SCT007 OVC015
     FM241500 36015G25KT 5SM -RA BR OVC015
     FM241800 36014G22KT 6SM -SHRA OVC020
      AMD LTD TO CLD VIS AND WIND=



000
FTUS41 KCAR 241300 AAD
TAFCAR
TAF AMD
KCAR 241330Z 2414/2512 34014KT 2SM -SN BR SCT008 OVC015
     FM241400 35015G25KT 3SM -RASN BR SCT007 OVC015
     FM241430 36015G25KT 5SM -RA BR OVC015
     FM241800 36014G22KT 6SM -SHRA OVC020=



000
FTUS41 KCAR 241300 AAD
TAFPQI
TAF AMD
KPQI 241330Z 2414/2512 34014G22KT 1 1/2SM -SN BR SCT009 OVC015
     FM241430 35015G25KT 3SM -RASN BR SCT007 OVC015
     FM241500 36015G25KT 5SM -RA BR OVC015
     FM241800 36014G22KT 6SM -SHRA OVC020
      AMD LTD TO CLD VIS AND WIND=



000
FTUS41 KCAR 241300 AAC
TAFPQI
TAF AMD
KPQI 241321Z 2413/2512 34014G22KT 1 1/2SM -SN BR SCT009 OVC015
     FM241330 35015G25KT 3SM -RASN BR SCT007 OVC015
     FM241400 36015G25KT 5SM -RA BR OVC015
     FM241800 36014G22KT 6SM -SHRA OVC020
      AMD LTD TO CLD VIS AND WIND=



000
FTUS41 KCAR 241300 AAB
TAFPQI
TAF AMD
KPQI 241303Z 2413/2512 34014G22KT 2SM -SN BR BKN009 OVC015
     FM241330 35015G25KT 3SM -RASN BR SCT007 OVC015
     FM241400 36015G25KT 5SM -RA BR OVC015
     FM241800 36014G22KT 6SM -SHRA OVC020
      AMD LTD TO CLD VIS AND WIND=



000
FTUS41 KCAR 241200 AAC
TAFHUL
TAF AMD
KHUL 241237Z 2413/2512 34014G22KT 3/4SM -SN BR BKN005 OVC015
     FM241400 35015G25KT 3SM -RASN BR SCT007 OVC015
     FM241500 36015G25KT 5SM -RA BR OVC015
     FM241800 36014G22KT 6SM -SHRA OVC020=



000
FTUS41 KCAR 241200 CCA
TAFHUL
TAF COR
KHUL 241237Z 2413/2512 34014KT 3/4SM -SN BR BKN005 OVC015
     FM241400 35015G25KT 3SM -RASN BR SCT007 OVC015
     FM241500 36015G25KT 5SM -RA BR OVC015
     FM241800 36014G22KT 6SM -SHRA OVC020=



000
FTUS41 KCAR 241200 AAC
TAFCAR
TAF AMD
KCAR 241237Z 2413/2512 34014KT 1SM -SN BR SCT008 OVC015
     FM241400 35015G25KT 3SM -RASN BR SCT007 OVC015
     FM241430 36015G25KT 5SM -RA BR OVC015
     FM241800 36014G22KT 6SM -SHRA OVC020=



000
FTUS41 KCAR 241200 AAB
TAFCAR
TAF AMD
KCAR 241225Z 2412/2512 34014KT 3/4SM -SN BR SCT008 OVC015
     FM241400 35015G25KT 3SM -RASN BR SCT007 OVC015
     FM241430 36015G25KT 5SM -RA BR OVC015
     FM241800 36014G22KT 6SM -SHRA OVC020=



000
FTUS41 KCAR 241200 AAB
TAFBGR
TAF AMD
KBGR 241225Z 2412/2512 32014G26KT P6SM -RA OVC025
     FM241500 34024G32KT P6SM BKN035 OVC080
     FM250000 35014G22KT P6SM SCT100=



000
FTUS41 KCAR 241200 AAB
TAFHUL
TAF AMD
KHUL 241200Z 2412/2512 34014G22KT 1SM -SN BR BKN007 OVC015
     FM241400 35015G25KT 3SM -RASN BR SCT007 OVC015
     FM241500 36015G25KT 5SM -RA BR OVC015
     FM241800 36014G22KT 6SM -SHRA OVC020=



000
FTUS41 KCAR 241100 AAA
TAFCAR
TAF AMD
KCAR 241155Z 2412/2512 34014G22KT 3/4SM -SN BR SCT008 OVC015
     FM241400 35015G25KT 3SM -RASN BR SCT007 OVC015
     FM241430 36015G25KT 5SM -RA BR OVC015
     FM241800 36014G22KT 6SM -SHRA OVC020=



000
FTUS41 KCAR 241100 AAA
TAFHUL
TAF AMD
KHUL 241154Z 2412/2512 34014G22KT 3/4SM -SN BR BKN007 OVC015
     FM241400 35015G25KT 3SM -RASN BR SCT007 OVC015
     FM241500 36015G25KT 5SM -RA BR OVC015
     FM241800 36014G22KT 6SM -SHRA OVC020=



000
FTUS41 KCAR 241100 AAA
TAFPQI
TAF AMD
KPQI 241154Z 2412/2512 34014G22KT 1 1/2SM -SN BR SCT008 OVC015
     FM241330 35015G25KT 3SM -RASN BR SCT007 OVC015
     FM241400 36015G25KT 5SM -RA BR OVC015
     FM241800 36014G22KT 6SM -SHRA OVC020
      AMD LTD TO CLD VIS AND WIND=



000
FTUS41 KCAR 241100 AAA
TAFBHB
TAF AMD
KBHB 241152Z 2412/2512 34014G22KT P6SM BKN015 OVC035
     FM241600 34018G28KT P6SM BKN035 OVC080
     FM250000 35012G20KT P6SM SCT100
      AMD LTD TO CLD VIS AND WIND=



000
FTUS41 KCAR 241100 AAA
TAFBGR
TAF AMD
KBGR 241152Z 2412/2512 32014KT P6SM -RA OVC035
     FM241500 34024G32KT P6SM BKN035 OVC080
     FM250000 35014G22KT P6SM SCT100=



000
FTUS41 KCAR 241100
TAFBHB
TAF
KBHB 241122Z 2412/2512 34014G22KT P6SM BKN025 OVC035
     FM241400 34018G28KT P6SM BKN035 OVC080
     FM250000 35012G20KT P6SM SCT100
      AMD LTD TO CLD VIS AND WIND=



000
FTUS41 KCAR 241100
TAFHUL
TAF
KHUL 241122Z 2412/2512 34014G22KT 1 1/2SM -SN BR BKN008 OVC015
     FM241300 35015G25KT 3SM -RASN BR SCT007 OVC015
     FM241400 36015G25KT 5SM -RA BR OVC015
     FM241800 36014G22KT 6SM -SHRA OVC020=



000
FTUS41 KCAR 241100
TAFPQI
TAF
KPQI 241122Z 2412/2512 34014G22KT 1 1/2SM -SN BR BKN008 OVC015
     FM241300 35015G25KT 3SM -RASN BR SCT007 OVC015
     FM241400 36015G25KT 5SM -RA BR OVC015
     FM241800 36014G22KT 6SM -SHRA OVC020
      AMD LTD TO CLD VIS AND WIND=



000
FTUS41 KCAR 241100
TAFCAR
TAF
KCAR 241122Z 2412/2512 34014G22KT 1 1/2SM -SN BR BKN008 OVC015
     FM241330 35015G25KT 3SM -RASN BR SCT007 OVC015
     FM241430 36015G25KT 5SM -RA BR OVC015
     FM241800 36014G22KT 6SM -SHRA OVC020=



000
FTUS41 KCAR 241100
TAFBGR
TAF
KBGR 241122Z 2412/2512 34014G22KT P6SM OVC035
      TEMPO 2412/2414 BKN025 OVC035
     FM241500 34024G32KT P6SM BKN035 OVC080
     FM250000 35014G22KT P6SM SCT100=



000
FTUS41 KCAR 240500 RRA
TAFBGR
TAF
KBGR 240559Z 2406/2506 34015G25KT 6SM -RA OVC035
     FM241500 34024G32KT P6SM BKN035 OVC080
     FM250000 35014G22KT P6SM SCT100=



000
FTUS41 KCAR 240500 RRA
TAFHUL
TAF
KHUL 240559Z 2406/2506 34010G18KT 3SM -RASN BR OVC008
     FM241300 35015G25KT 2SM -RA BR OVC007
     FM241900 36015G25KT 5SM -SHRA OVC010=



000
FTUS41 KCAR 240500 RRA
TAFBHB
TAF
KBHB 240559Z 2406/2506 34015G25KT 6SM -RA BKN025 OVC035
     FM241000 34015G25KT P6SM SCT025 OVC035
     FM241500 34018G28KT P6SM BKN035 OVC080
     FM250000 35012G20KT P6SM SCT100
      AMD LTD TO CLD VIS AND WIND=



000
FTUS41 KCAR 240500 RRA
TAFPQI
TAF
KPQI 240559Z 2406/2506 34014G22KT 2SM -SN BR BKN008 OVC015
     FM241300 35015G25KT 2SM -RASN BR OVC007
     FM241400 36015G25KT 5SM -RA BR BKN007 OVC010
     FM241800 36014G22KT 6SM -SHRA OVC010
      AMD LTD TO CLD VIS AND WIND=



000
FTUS41 KCAR 240500 RRA
TAFCAR
TAF
KCAR 240559Z 2406/2506 34014G22KT 1 1/2SM -SN BR BKN008 OVC015
     FM241300 35015G25KT 2SM -RASN BR OVC007
     FM241400 36015G25KT 5SM -RA BR BKN007 OVC010
     FM241800 36014G22KT 6SM -SHRA OVC010=



000
FTUS41 KCAR 240200 AAA
TAFBHB
TAF AMD
KBHB 240236Z 2403/2424 34011G18KT P6SM -SHRA OVC060
     FM240500 34012G20KT 5SM -SHRA BR OVC025
     FM240800 33014KT P6SM OVC015
     FM241200 33016G26KT P6SM OVC025
     FM241900 34019G29KT P6SM SCT020 OVC035
      AMD LTD TO CLD VIS AND WIND=



000
FTUS41 KCAR 240200 AAA
TAFBGR
TAF AMD
KBGR 240236Z 2403/2424 34013KT P6SM -RA OVC035
     FM240600 34015KT 5SM -DZ BR OVC025
     FM240900 33014KT P6SM OVC025
     FM241500 34019G30KT P6SM OVC025
     FM241800 34022G32KT P6SM SCT025 OVC035=



000
FTUS41 KCAR 240200 AAA
TAFHUL
TAF AMD
KHUL 240235Z 2403/2424 35007KT P6SM -SHRA OVC007
     FM240600 35008KT 3SM -SNRA BR OVC005
     FM240900 34010KT 2SM -RA BR OVC005
     FM241400 35014G23KT 2SM -RA BR OVC005
     FM241900 36015G23KT P6SM OVC010=



000
FTUS41 KCAR 240200 AAA
TAFPQI
TAF AMD
KPQI 240234Z 2403/2424 33010KT 6SM -SHRASN OVC010
     FM240500 33012KT 1SM -SN BR OVC004
     FM241300 34012G20KT 2SM -RA BR OVC005
     FM241900 36015G23KT P6SM OVC010
      AMD LTD TO CLD VIS AND WIND=



000
FTUS41 KCAR 240200 AAA
TAFCAR
TAF AMD
KCAR 240233Z 2403/2424 33012KT P6SM -SHRASN OVC012
     FM240400 34012G20KT 1SM -SN BR OVC005
     FM241400 36013G20KT 3SM -RA BR OVC004
     FM241800 36014G24KT 5SM -DZ BR OVC006=



000
FTUS41 KCAR 232300
TAFHUL
TAF
KHUL 232334Z 2400/2424 32008KT P6SM OVC007
      TEMPO 2400/2401 -SHRA
     FM240100 33009KT 5SM -SHRA BR OVC004
     FM240900 34010KT 2SM -RA BR OVC005
     FM241400 35014G23KT 2SM -RA BR OVC005
     FM241900 36015G23KT P6SM OVC010=



000
FTUS41 KCAR 232300
TAFBHB
TAF
KBHB 232334Z 2400/2424 36007KT P6SM -SHRA VCTS BKN015 OVC050CB
     FM240200 34012KT 3SM -RA BR OVC012
     FM240800 33014KT P6SM OVC015
     FM241200 33016G26KT P6SM OVC025
     FM241900 34019G29KT P6SM SCT020 OVC035
      AMD LTD TO CLD VIS AND WIND=



000
FTUS41 KCAR 232300
TAFBGR
TAF
KBGR 232334Z 2400/2424 32015KT P6SM SCT025 BKN040 OVC090
      TEMPO 2400/2402 -RA OVC025
     FM240200 33014KT 5SM -RA BR OVC015
     FM240900 33014KT P6SM OVC025
     FM241500 34019G30KT P6SM OVC025
     FM241800 34022G32KT P6SM SCT025 OVC035=



000
FTUS41 KCAR 232300
TAFPQI
TAF
KPQI 232334Z 2400/2424 33010KT P6SM OVC006
     FM240200 33012KT 3SM -RA BR OVC004
     FM240700 33012KT 1SM -RASN BR OVC004
     FM241300 34012G20KT 2SM -RA BR OVC005
     FM241900 36015G23KT P6SM OVC010
      AMD LTD TO CLD VIS AND WIND=



000
FTUS41 KCAR 232300
TAFCAR
TAF
KCAR 232334Z 2400/2424 32013KT 5SM BR VCSH OVC005
     FM240200 33012KT 2SM -RA BR OVC003
     FM240600 34012G20KT 1SM -SNRA OVC003
     FM241400 36013G20KT 3SM -RA BR OVC004
     FM241800 36014G24KT 5SM -DZ BR OVC006=



000
FTUS41 KCAR 232100 AAA
TAFPQI
TAF AMD
KPQI 232127Z 2321/2418 31010KT 5SM BR OVC008
     FM240300 34007KT 3SM -RA OVC005
     FM240600 34008KT 3SM -RASN OVC005
     FM241400 35013G20KT 6SM -RADZ OVC010
      AMD LTD TO CLD VIS AND WIND=



000
FTUS41 KCAR 231900 AAC
TAFCAR
TAF AMD
KCAR 231944Z 2320/2418 VRB03KT 2SM BR OVC005
     FM240300 34007KT 3SM -RASN OVC005
     FM241500 35013G20KT 6SM -RADZ OVC010=



000
FTUS41 KCAR 231900 AAC
TAFHUL
TAF AMD
KHUL 231935Z 2320/2418 31009KT 2SM BR OVC007
     FM232100 32008KT 6SM -SHRA OVC015
     FM232300 35007KT 3SM -RA OVC008
     FM241400 35013G20KT 6SM -RADZ OVC010=



000
FTUS41 KCAR 231900 AAB
TAFHUL
TAF AMD
KHUL 231933Z 2320/2418 31009KT 5SM BR OVC009
     FM232100 32008KT 6SM -SHRA OVC015
     FM232300 35007KT 3SM -RA OVC008
     FM241400 35013G20KT 6SM -RADZ OVC010=



000
FTUS41 KCAR 231800 AAC
TAFBGR
TAF AMD
KBGR 231852Z 2319/2418 33009G15KT P6SM OVC035
     FM232100 35007KT 3SM -RA OVC015
     FM241200 34018G25KT 3SM -RA OVC025
     FM241300 34019G30KT P6SM OVC025
     FM241500 34021G32KT P6SM OVC030=



000
FTUS41 KCAR 231800 AAB
TAFBGR
TAF AMD
KBGR 231846Z 2319/2418 33009G15KT P6SM OVC025
     FM232100 35007KT 3SM -RA OVC015
     FM241200 34018G25KT 3SM -RA OVC025
     FM241300 34019G30KT P6SM OVC025
     FM241500 34021G32KT P6SM OVC030=



000
FTUS41 KCAR 231800 AAA
TAFHUL
TAF AMD
KHUL 231846Z 2319/2418 11004KT 5SM BR OVC009
     FM231900 09004KT 6SM -SHRA OVC015
     FM232300 35007KT 3SM -RA OVC008
     FM241400 35013G20KT 6SM -RADZ OVC010=



000
FTUS41 KCAR 231800 AAB
TAFCAR
TAF AMD
KCAR 231845Z 2319/2418 VRB03KT 3SM BR OVC004
     FM240300 34007KT 3SM -RASN OVC005
     FM241500 35013G20KT 6SM -RADZ OVC010=



000
FTUS41 KCAR 231800 AAA
TAFBGR
TAF AMD
KBGR 231845Z 2319/2418 36007KT P6SM OVC025
     FM232100 35007KT 3SM -RA OVC015
     FM241200 34018G25KT 3SM -RA OVC025
     FM241300 34019G30KT P6SM OVC025
     FM241500 34021G32KT P6SM OVC030=



000
FTUS41 KCAR 231800 AAA
TAFCAR
TAF AMD
KCAR 231814Z 2318/2418 VRB03KT 2SM BR OVC005
     FM240300 34007KT 3SM -RASN OVC005
     FM241500 35013G20KT 6SM -RADZ OVC010=



000
FTUS41 KCAR 231700 RRA
TAFBGR
TAF
KBGR 231759Z 2318/2418 36007KT P6SM OVC035
     FM232100 35007KT 3SM -RA OVC015
     FM241200 34018G25KT 3SM -RA OVC025
     FM241300 34019G30KT P6SM OVC025
     FM241500 34021G32KT P6SM OVC030=



000
FTUS41 KCAR 231700 RRA
TAFPQI
TAF
KPQI 231759Z 2318/2418 VRB03KT 5SM BR OVC005
     FM240300 34007KT 3SM -RASN OVC005
     FM241400 35013G20KT 6SM -RADZ OVC010
      AMD LTD TO CLD VIS AND WIND=



000
FTUS41 KCAR 231700 RRA
TAFHUL
TAF
KHUL 231759Z 2318/2418 11004KT 6SM BR OVC008
     FM231900 09004KT 6SM -SHRA OVC015
     FM232300 35007KT 3SM -RA OVC008
     FM241400 35013G20KT 6SM -RADZ OVC010=



000
FTUS41 KCAR 231700 RRA
TAFCAR
TAF
KCAR 231759Z 2318/2418 VRB03KT 2SM BR OVC004
     FM240300 34007KT 3SM -RASN OVC005
     FM241500 35013G20KT 6SM -RADZ OVC010=



000
FTUS41 KCAR 231700 RRA
TAFBHB
TAF
KBHB 231759Z 2318/2418 33007KT P6SM OVC025
     FM232100 33007KT 3SM -SHRA VCTS SCT008 BKN012 OVC040CB
     FM240300 34006KT 5SM -RA OVC010
     FM241400 34014G32KT P6SM OVC015
      AMD LTD TO CLD VIS AND WIND=



000
FTUS41 KCAR 231700 AAE
TAFCAR
TAF AMD
KCAR 231702Z 2317/2412 14006KT 1 1/2SM BR OVC005
     FM232300 34010KT 5SM -RA OVC008=



000
FTUS41 KCAR 231600 AAB
TAFPQI
TAF AMD
KPQI 231645Z 2317/2412 15006KT 3SM -SHRA OVC004
     FM231800 14005KT 6SM BR BKN007 OVC015
     FM232300 34010KT 6SM -RA OVC008
      AMD LTD TO CLD VIS AND WIND=



000
FTUS41 KCAR 231600 AAD
TAFCAR
TAF AMD
KCAR 231632Z 2317/2412 14006KT 1 1/2SM BR OVC004
     FM232300 34010KT 5SM -RA OVC008=



000
FTUS41 KCAR 231600 AAC
TAFCAR
TAF AMD
KCAR 231604Z 2316/2412 14006KT 2SM BR OVC004
     FM232300 34010KT 5SM -RA OVC008=



000
FTUS41 KCAR 231600 AAC
TAFBGR
TAF AMD
KBGR 231603Z 2316/2412 16005KT 6SM BR OVC020
     FM231700 02007KT P6SM OVC020
     FM232300 34010KT 5SM -RA BR OVC008=



000
FTUS41 KCAR 231600 AAC
TAFHUL
TAF AMD
KHUL 231602Z 2316/2412 14007KT 6SM BR SCT004 OVC007
     FM232300 34010KT 5SM -RA BR OVC008=



000
FTUS41 KCAR 231600 AAB
TAFCAR
TAF AMD
KCAR 231602Z 2316/2412 14006KT 3SM BR OVC004
     FM232300 34010KT 5SM -RA OVC008=



000
FTUS41 KCAR 231600 AAA
TAFPQI
TAF AMD
KPQI 231601Z 2316/2412 15006KT 2SM -SHRA OVC004
     FM231800 14005KT 6SM BR BKN007 OVC015
     FM232300 34010KT 6SM -RA OVC008
      AMD LTD TO CLD VIS AND WIND=



000
FTUS41 KCAR 231600 AAA
TAFCAR
TAF AMD
KCAR 231600Z 2316/2412 14006KT 3SM BR OVC005
     FM232300 34010KT 5SM -RA OVC008=



000
FTUS41 KCAR 231400 AAB
TAFBGR
TAF AMD
KBGR 231416Z 2314/2412 16005KT 6SM BR OVC010
     FM231700 02007KT P6SM BKN015 OVC020
     FM232300 34010KT 5SM -RA BR OVC008=



000
FTUS41 KCAR 231300 AAA
TAFBHB
TAF AMD
KBHB 231359Z 2314/2412 15009KT 6SM BR OVC003
     FM231600 14004KT P6SM BKN015 OVC020
     FM232000 34008KT 5SM -RA BR OVC007
      AMD LTD TO CLD VIS AND WIND=



000
FTUS41 KCAR 231300 AAA
TAFBGR
TAF AMD
KBGR 231336Z 2314/2412 16005KT 6SM BR OVC005
     FM231700 02007KT P6SM BKN015 OVC020
     FM232300 34010KT 5SM -RA BR OVC008=



000
FTUS41 KCAR 231300 AAB
TAFHUL
TAF AMD
KHUL 231335Z 2314/2412 14007KT 6SM -SHRA BR SCT004 OVC015
     FM231500 36006KT P6SM BKN015 OVC020
     FM232300 34010KT 5SM -RA BR OVC008=



000
FTUS41 KCAR 231300 AAB
TAFCAR
TAF AMD
KCAR 231335Z 2314/2412 14006KT 6SM -SHRA BR OVC005
     FM231600 36006KT P6SM SCT008 OVC015
     FM232300 34010KT 5SM -RA OVC008=



000
FTUS41 KCAR 231100 AAA
TAFCAR
TAF AMD
KCAR 231158Z 2312/2412 14006KT 2SM -SHRA BR OVC004
     FM231600 36006KT P6SM SCT008 OVC015
     FM232300 34010KT 5SM -RA OVC008=



000
FTUS41 KCAR 231100 AAA
TAFHUL
TAF AMD
KHUL 231153Z 2312/2412 14007KT 2SM -SHRA BR OVC004
     FM231500 36006KT P6SM BKN015 OVC020
     FM232300 34010KT 5SM -RA BR OVC008=



000
FTUS41 KCAR 231100
TAFCAR
TAF
KCAR 231123Z 2312/2412 14006KT 5SM -SHRA BR OVC007
     FM231600 36006KT P6SM SCT008 OVC015
     FM232300 34010KT 5SM -RA OVC008=



000
FTUS41 KCAR 231100
TAFBGR
TAF
KBGR 231123Z 2312/2412 16005KT 5SM BR OVC007
     FM231700 02007KT P6SM BKN015 OVC020
     FM232300 34010KT 5SM -RA BR OVC008=



000
FTUS41 KCAR 231100
TAFHUL
TAF
KHUL 231123Z 2312/2412 14007KT 4SM -SHRA BR OVC007
     FM231500 36006KT P6SM BKN015 OVC020
     FM232300 34010KT 5SM -RA BR OVC008=



000
FTUS41 KCAR 231100
TAFPQI
TAF
KPQI 231123Z 2312/2412 15006KT P6SM -SHRA OVC005
     FM231500 14005KT P6SM SCT008 OVC015
     FM231700 36006KT P6SM SCT015 OVC035
     FM232300 34010KT 6SM -RA OVC008
      AMD LTD TO CLD VIS AND WIND=



000
FTUS41 KCAR 231100
TAFBHB
TAF
KBHB 231123Z 2312/2412 15009KT 1/2SM FG OVC002
     FM231400 13005KT 4SM BR OVC005
     FM231600 14004KT P6SM BKN015 OVC020
     FM232000 34008KT 5SM -RA BR OVC007
      AMD LTD TO CLD VIS AND WIND=



000
FTUS41 KCAR 230900 AAA
TAFPQI
TAF AMD
KPQI 230900Z 2309/2406 15006KT P6SM -RA OVC005
     FM231100 14005KT P6SM VCSH OVC015
     FM231500 36006KT P6SM SCT015 OVC035
     FM231900 35008KT P6SM BKN035 OVC050
     FM232300 34010KT 6SM -RA OVC015
      AMD LTD TO CLD VIS AND WIND=



000
FTUS41 KCAR 230500 RRA
TAFCAR
TAF
KCAR 230547Z 2306/2406 11006KT 3SM -RA BR OVC005
     FM231500 36006KT 5SM -RA SCT008 OVC015
     FM231900 35008KT P6SM BKN035 OVC050
     FM232300 34010KT 5SM -RA OVC015=



000
FTUS41 KCAR 230500 RRA
TAFPQI
TAF
KPQI 230547Z 2306/2406 14006KT P6SM -RA SCT015 OVC050
     FM230700 14005KT 6SM -RA BKN015 OVC035
     FM231500 36006KT P6SM SCT015 OVC035
     FM231900 35008KT P6SM BKN035 OVC050
     FM232300 34010KT 6SM -RA OVC015
      AMD LTD TO CLD VIS AND WIND=



000
FTUS41 KCAR 230500 RRA
TAFBHB
TAF
KBHB 230547Z 2306/2406 15009KT P6SM OVC008
     FM231100 13005KT P6SM OVC010
     FM231600 14004KT P6SM OVC035
     FM232000 34008KT 4SM -RA OVC015
      AMD LTD TO CLD VIS AND WIND=



000
FTUS41 KCAR 230500 RRA
TAFBGR
TAF
KBGR 230547Z 2306/2406 16006KT 6SM -RA BR OVC009
     FM231100 VRB03KT P6SM -RA BKN013 OVC020
     FM231600 02007KT P6SM BKN035 OVC050
     FM232300 34010KT 6SM -RA BKN015 OVC020=



000
FTUS41 KCAR 230500 RRA
TAFHUL
TAF
KHUL 230547Z 2306/2406 14007KT 6SM -RA BR OVC050
     FM230700 14005KT 6SM -RA BKN015 OVC035
     FM231500 36006KT P6SM SCT015 OVC035
     FM231900 35008KT P6SM BKN035 OVC050
     FM232300 34010KT 5SM -RA OVC015=



000
FTUS41 KCAR 222300
TAFBHB
TAF
KBHB 222323Z 2300/2324 15009KT P6SM BKN100
     FM230200 14007KT P6SM -SHRA SCT035 OVC070
     FM230500 12005KT 5SM -RA BKN025 OVC040
     FM230900 VRB03KT 3SM -RA BR OVC008
     FM231100 VRB03KT 2SM -SHRA BR OVC005
     FM231300 VRB03KT 4SM -SHRA BR OVC008
     FM231800 34010KT 3SM -RA OVC008
      AMD LTD TO CLD VIS AND WIND=



000
FTUS41 KCAR 222300
TAFCAR
TAF
KCAR 222323Z 2300/2324 08007KT P6SM -RA SCT025 OVC080
     FM230300 07008KT 5SM -RA OVC018
     FM230600 06006KT 3SM -RA BR OVC008
     FM231000 03006KT 2SM -RA BR OVC005
     FM231600 36006KT 2SM -RA OVC008=



000
FTUS41 KCAR 222300
TAFBGR
TAF
KBGR 222323Z 2300/2324 16009KT P6SM -SHRA OVC090
     FM230400 16007KT 5SM -RA BKN025 OVC040
     FM230900 VRB03KT 3SM -RA BR OVC008
     FM231100 VRB03KT 2SM -SHRA BR OVC005
     FM231300 VRB03KT 4SM -SHRA BR OVC008
     FM231800 34010KT 3SM -RA OVC008=



000
FTUS41 KCAR 222300
TAFPQI
TAF
KPQI 222323Z 2300/2324 10007KT P6SM -RA SCT025 OVC080
     FM230300 08008KT 5SM -RA OVC018
     FM230600 06006KT 3SM -RA BR OVC008
     FM231000 03006KT 2SM -RA BR OVC005
     FM231600 36006KT 2SM -RA OVC008
      AMD LTD TO CLD VIS AND WIND=



000
FTUS41 KCAR 222300
TAFHUL
TAF
KHUL 222323Z 2300/2324 11008G15KT P6SM -RA SCT025 OVC080
     FM230300 08008KT 5SM -RA OVC018
     FM230600 06006KT 3SM -RA BR OVC008
     FM231000 03006KT 2SM -RA BR OVC005
     FM231500 36006KT 2SM -RA OVC008=



000
FTUS41 KCAR 221700
TAFHUL
TAF
KHUL 221735Z 2218/2318 08008KT P6SM VCSH OVC070
     FM222100 13008KT 6SM -RA BR OVC030
     FM230000 13008KT 5SM -RA BR OVC020
     FM230200 15008KT 3SM -RA BR OVC015
     FM230400 15008KT 3SM -RA BR OVC008
     FM230600 16008KT 3SM RA BR OVC005
     FM231300 12008KT 3SM -RA BR OVC008=



000
FTUS41 KCAR 221700
TAFBGR
TAF
KBGR 221735Z 2218/2318 15010KT P6SM BKN100
     FM230000 16010KT P6SM OVC030
     FM230200 16010KT 5SM -RA BR OVC015
     FM230400 16010KT 3SM -RA BR OVC008
     FM230600 16010KT 3SM -RA BR OVC005
     FM231300 04010KT P6SM VCSH OVC008=



000
FTUS41 KCAR 221700
TAFBHB
TAF
KBHB 221735Z 2218/2318 15010KT P6SM BKN100
     FM230000 16010KT P6SM OVC030
     FM230200 16010KT 5SM -RA BR OVC015
     FM230400 16010KT 3SM -RA BR OVC008
     FM230600 16010KT 3SM -RA BR OVC005
     FM231300 04010KT P6SM VCSH OVC008
      AMD LTD TO CLD VIS AND WIND=



000
FTUS41 KCAR 221700
TAFCAR
TAF
KCAR 221735Z 2218/2318 12008KT P6SM -RA SCT025 OVC040
      TEMPO 2218/2220 6SM -RA BR OVC025
     FM222000 13008KT 3SM -RA BR OVC025
     FM222200 13008KT 3SM -RA BR OVC015
     FM230200 13008KT 3SM -RA BR OVC008
     FM230600 13008KT 2SM RA BR OVC005
     FM231300 10008KT 3SM -RA BR OVC005=



000
FTUS41 KCAR 221700
TAFPQI
TAF
KPQI 221735Z 2218/2318 12008KT P6SM -RA SCT025 OVC040
      TEMPO 2218/2220 6SM -RA BR OVC025
     FM222000 13008KT 6SM -RA BR OVC025
     FM222200 13008KT 3SM -RA BR OVC015
     FM230200 13008KT 3SM -RA BR OVC008
     FM230600 13008KT 3SM RA BR OVC005
     FM231300 10008KT 4SM -RA BR OVC008
      AMD LTD TO CLD VIS AND WIND=



000
FTUS41 KCAR 221500 AAA
TAFHUL
TAF AMD
KHUL 221505Z 2215/2312 11006KT P6SM VCSH OVC060
      TEMPO 2215/2218 -RA OVC050
     FM221800 13008KT P6SM VCSH OVC040
     FM222300 14008KT P6SM OVC025
     FM230100 14008KT P6SM -RA OVC015
     FM230600 14007KT 3SM -RA BR OVC005
     FM231000 VRB03KT 3SM -RA BR OVC005=



000
FTUS41 KCAR 221400 AAA
TAFCAR
TAF AMD
KCAR 221424Z 2214/2312 11006KT P6SM VCSH OVC060
      TEMPO 2214/2218 -RA OVC050
     FM221800 12006KT 3SM -RA OVC015
     FM230200 11007KT 3SM -RA BR OVC008
     FM230600 11006KT 3SM -RA BR OVC005=



000
FTUS41 KCAR 221400 AAA
TAFPQI
TAF AMD
KPQI 221421Z 2214/2312 10006KT P6SM VCSH OVC060
      TEMPO 2214/2218 -RA OVC050
     FM221800 12006KT 3SM -RA OVC015
     FM230900 07005KT P6SM -RA OVC005
     FM231000 05005KT 6SM -RA BR OVC008
      AMD LTD TO CLD VIS AND WIND=



000
FTUS41 KCAR 221100
TAFBGR
TAF
KBGR 221120Z 2212/2312 11004KT P6SM -RA BKN080
     FM221600 14008KT P6SM BKN090
     FM230100 16008KT 3SM -RA BR OVC015
     FM230200 16007KT 2SM -RA BR OVC005
     FM231000 VRB03KT 2SM -RA BR OVC003=



000
FTUS41 KCAR 221100
TAFPQI
TAF
KPQI 221120Z 2212/2312 00000KT P6SM -RA OVC060
     FM221400 09004KT P6SM -RA OVC025
     FM221600 11005KT P6SM -RA OVC015
     FM221700 12006KT 3SM -RA OVC015
     FM230900 07005KT P6SM -RA OVC005
     FM231000 05005KT 6SM -RA BR OVC008
      AMD LTD TO CLD VIS AND WIND=



000
FTUS41 KCAR 221100
TAFHUL
TAF
KHUL 221120Z 2212/2312 VRB03KT P6SM OVC060
     FM221400 11005KT P6SM -RA OVC045
     FM221500 12006KT P6SM OVC025
     FM222100 13008KT P6SM OVC045
     FM222300 14008KT P6SM OVC025
     FM230100 14008KT P6SM -RA OVC015
     FM230600 14007KT 3SM -RA BR OVC005
     FM231000 VRB03KT 3SM -RA BR OVC005=



000
FTUS41 KCAR 221100
TAFBHB
TAF
KBHB 221120Z 2212/2312 15004KT P6SM BKN080
     FM221600 16008KT P6SM BKN100
     FM230200 17009KT P6SM -RA OVC025
     FM230400 17009KT 6SM -RA BR OVC005
     FM230900 15005KT 3SM -RA BR OVC003
      AMD LTD TO CLD VIS AND WIND=



000
FTUS41 KCAR 221100
TAFCAR
TAF
KCAR 221120Z 2212/2312 VRB03KT P6SM -RA OVC090
     FM221400 09004KT P6SM -RA OVC025
     FM221500 10004KT P6SM -RA OVC020
     FM221800 12006KT 3SM -RA OVC015
     FM230200 11007KT 3SM -RA BR OVC008
     FM230600 11006KT 3SM -RA BR OVC005=



000
FTUS41 KCAR 220900 AAA
TAFBGR
TAF AMD
KBGR 220921Z 2209/2306 19005KT P6SM -RA SCT060 OVC070
     FM222300 15009KT P6SM -RA OVC050
     FM230100 15008KT P6SM -RA OVC015
     FM230200 15007KT 3SM -RA OVC005=



    US Dept of Commerce
    National Oceanic and Atmospheric Administration
    National Weather Service
    1325 East West Highway
    Silver Spring, MD 20910
    Page Author: NWS Internet Services Team
Disclaimer
Information Quality
Credits
Glossary
Privacy Policy
Freedom of Information Act (FOIA)
About Us
Career Opportunities